sensor_id;sensor_type;location;lat;lon;timestamp;temperature;humidity
81202;DHT22;71068;47.662;-2.750;2023-07-29T00:01:20;20.20;85.10
81202;DHT22;71068;47.662;-2.750;2023-07-29T00:03:56;20.30;84.30
81202;DHT22;71068;47.662;-2.750;2023-07-29T00:06:24;20.50;83.90
81202;DHT22;71068;47.662;-2.750;2023-07-29T00:08:51;20.40;83.80
81202;DHT22;71068;47.662;-2.750;2023-07-29T00:14:28;20.40;84.10
81202;DHT22;71068;47.662;-2.750;2023-07-29T00:16:59;20.40;83.70
81202;DHT22;71068;47.662;-2.750;2023-07-29T00:26:03;20.30;83.70
81202;DHT22;71068;47.662;-2.750;2023-07-29T00:28:41;20.40;83.90
81202;DHT22;71068;47.662;-2.750;2023-07-29T00:31:24;20.40;83.90
81202;DHT22;71068;47.662;-2.750;2023-07-29T00:33:55;20.60;83.90
81202;DHT22;71068;47.662;-2.750;2023-07-29T00:36:35;20.60;83.90
81202;DHT22;71068;47.662;-2.750;2023-07-29T00:39:01;20.50;84.50
81202;DHT22;71068;47.662;-2.750;2023-07-29T00:41:43;20.00;86.70
81202;DHT22;71068;47.662;-2.750;2023-07-29T00:44:11;20.20;86.30
81202;DHT22;71068;47.662;-2.750;2023-07-29T00:46:40;20.30;85.60
81202;DHT22;71068;47.662;-2.750;2023-07-29T00:49:07;20.00;86.70
81202;DHT22;71068;47.662;-2.750;2023-07-29T00:51:50;19.90;87.00
81202;DHT22;71068;47.662;-2.750;2023-07-29T00:58:19;20.00;87.20
81202;DHT22;71068;47.662;-2.750;2023-07-29T01:01:22;19.90;88.10
81202;DHT22;71068;47.662;-2.750;2023-07-29T01:18:32;20.10;86.60
81202;DHT22;71068;47.662;-2.750;2023-07-29T01:46:11;20.00;87.10
81202;DHT22;71068;47.662;-2.750;2023-07-29T01:52:18;20.00;87.20
81202;DHT22;71068;47.662;-2.750;2023-07-29T01:54:54;20.10;86.90
81202;DHT22;71068;47.662;-2.750;2023-07-29T02:04:23;19.60;89.60
81202;DHT22;71068;47.662;-2.750;2023-07-29T02:06:49;19.50;88.70
81202;DHT22;71068;47.662;-2.750;2023-07-29T02:09:15;19.40;89.20
81202;DHT22;71068;47.662;-2.750;2023-07-29T02:11:52;19.50;88.60
81202;DHT22;71068;47.662;-2.750;2023-07-29T02:14:18;19.40;88.90
81202;DHT22;71068;47.662;-2.750;2023-07-29T02:16:44;19.30;89.20
81202;DHT22;71068;47.662;-2.750;2023-07-29T02:19:14;19.40;88.90
81202;DHT22;71068;47.662;-2.750;2023-07-29T02:25:40;19.40;88.90
81202;DHT22;71068;47.662;-2.750;2023-07-29T02:28:11;19.40;88.90
81202;DHT22;71068;47.662;-2.750;2023-07-29T02:44:39;19.50;89.60
81202;DHT22;71068;47.662;-2.750;2023-07-29T02:47:23;19.40;89.30
81202;DHT22;71068;47.662;-2.750;2023-07-29T02:53:15;19.50;89.40
81202;DHT22;71068;47.662;-2.750;2023-07-29T02:55:41;19.50;89.30
81202;DHT22;71068;47.662;-2.750;2023-07-29T02:58:29;19.30;90.30
81202;DHT22;71068;47.662;-2.750;2023-07-29T03:04:55;19.40;90.30
81202;DHT22;71068;47.662;-2.750;2023-07-29T03:07:21;19.40;90.20
81202;DHT22;71068;47.662;-2.750;2023-07-29T03:09:47;19.40;90.20
81202;DHT22;71068;47.662;-2.750;2023-07-29T03:12:13;19.60;89.50
81202;DHT22;71068;47.662;-2.750;2023-07-29T03:14:50;19.60;89.10
81202;DHT22;71068;47.662;-2.750;2023-07-29T03:17:18;19.50;88.90
81202;DHT22;71068;47.662;-2.750;2023-07-29T03:19:51;19.60;89.20
81202;DHT22;71068;47.662;-2.750;2023-07-29T03:33:35;19.80;88.90
81202;DHT22;71068;47.662;-2.750;2023-07-29T03:47:42;19.90;88.50
81202;DHT22;71068;47.662;-2.750;2023-07-29T03:50:33;19.90;88.60
81202;DHT22;71068;47.662;-2.750;2023-07-29T03:53:09;19.90;88.50
81202;DHT22;71068;47.662;-2.750;2023-07-29T03:55:35;19.90;88.40
81202;DHT22;71068;47.662;-2.750;2023-07-29T04:01:31;19.90;88.10
81202;DHT22;71068;47.662;-2.750;2023-07-29T04:07:54;19.80;87.60
81202;DHT22;71068;47.662;-2.750;2023-07-29T04:10:21;19.80;88.20
81202;DHT22;71068;47.662;-2.750;2023-07-29T04:34:08;19.80;87.80
81202;DHT22;71068;47.662;-2.750;2023-07-29T04:44:04;19.80;87.70
81202;DHT22;71068;47.662;-2.750;2023-07-29T04:54:12;19.90;87.30
81202;DHT22;71068;47.662;-2.750;2023-07-29T05:14:55;19.80;87.70
81202;DHT22;71068;47.662;-2.750;2023-07-29T05:24:23;19.90;87.00
81202;DHT22;71068;47.662;-2.750;2023-07-29T05:43:34;19.80;86.30
81202;DHT22;71068;47.662;-2.750;2023-07-29T05:46:24;19.80;86.30
81202;DHT22;71068;47.662;-2.750;2023-07-29T05:49:08;19.90;86.20
81202;DHT22;71068;47.662;-2.750;2023-07-29T05:51:36;19.90;86.40
81202;DHT22;71068;47.662;-2.750;2023-07-29T05:54:22;19.80;86.60
81202;DHT22;71068;47.662;-2.750;2023-07-29T05:56:48;19.90;86.40
81202;DHT22;71068;47.662;-2.750;2023-07-29T05:59:43;19.90;86.50
81202;DHT22;71068;47.662;-2.750;2023-07-29T06:02:11;20.00;85.90
81202;DHT22;71068;47.662;-2.750;2023-07-29T06:11:51;19.90;86.70
81202;DHT22;71068;47.662;-2.750;2023-07-29T06:14:40;19.80;86.70
81202;DHT22;71068;47.662;-2.750;2023-07-29T06:17:23;20.00;85.80
81202;DHT22;71068;47.662;-2.750;2023-07-29T06:19:51;19.90;85.90
81202;DHT22;71068;47.662;-2.750;2023-07-29T06:22:22;20.00;85.70
81202;DHT22;71068;47.662;-2.750;2023-07-29T06:32:29;19.90;85.00
81202;DHT22;71068;47.662;-2.750;2023-07-29T06:35:32;19.90;83.70
81202;DHT22;71068;47.662;-2.750;2023-07-29T06:48:50;19.80;83.50
81202;DHT22;71068;47.662;-2.750;2023-07-29T06:51:16;19.60;83.50
81202;DHT22;71068;47.662;-2.750;2023-07-29T06:53:42;19.70;84.50
81202;DHT22;71068;47.662;-2.750;2023-07-29T06:56:09;19.80;84.20
81202;DHT22;71068;47.662;-2.750;2023-07-29T06:58:35;19.90;83.70
81202;DHT22;71068;47.662;-2.750;2023-07-29T07:01:18;20.00;83.50
81202;DHT22;71068;47.662;-2.750;2023-07-29T07:10:32;20.00;81.80
81202;DHT22;71068;47.662;-2.750;2023-07-29T07:12:59;20.00;81.90
81202;DHT22;71068;47.662;-2.750;2023-07-29T07:15:25;20.10;81.80
81202;DHT22;71068;47.662;-2.750;2023-07-29T07:17:58;19.90;81.60
81202;DHT22;71068;47.662;-2.750;2023-07-29T07:20:39;20.00;81.40
81202;DHT22;71068;47.662;-2.750;2023-07-29T07:23:07;19.90;81.30
81202;DHT22;71068;47.662;-2.750;2023-07-29T07:25:37;20.00;81.50
81202;DHT22;71068;47.662;-2.750;2023-07-29T07:28:04;20.10;81.00
81202;DHT22;71068;47.662;-2.750;2023-07-29T07:30:30;20.10;80.60
81202;DHT22;71068;47.662;-2.750;2023-07-29T07:32:59;20.20;80.50
81202;DHT22;71068;47.662;-2.750;2023-07-29T07:35:26;20.10;80.40
81202;DHT22;71068;47.662;-2.750;2023-07-29T07:41:32;20.20;80.80
81202;DHT22;71068;47.662;-2.750;2023-07-29T07:47:26;20.30;78.30
81202;DHT22;71068;47.662;-2.750;2023-07-29T08:04:00;20.50;76.50
81202;DHT22;71068;47.662;-2.750;2023-07-29T08:13:34;20.40;75.40
81202;DHT22;71068;47.662;-2.750;2023-07-29T08:26:05;20.90;75.20
81202;DHT22;71068;47.662;-2.750;2023-07-29T08:32:22;21.10;75.40
81202;DHT22;71068;47.662;-2.750;2023-07-29T08:41:48;21.40;72.60
81202;DHT22;71068;47.662;-2.750;2023-07-29T08:47:59;21.30;72.30
81202;DHT22;71068;47.662;-2.750;2023-07-29T08:50:39;21.50;72.90
81202;DHT22;71068;47.662;-2.750;2023-07-29T08:53:17;21.50;71.60
81202;DHT22;71068;47.662;-2.750;2023-07-29T08:55:54;21.60;72.10
81202;DHT22;71068;47.662;-2.750;2023-07-29T08:58:22;21.80;71.20
81202;DHT22;71068;47.662;-2.750;2023-07-29T09:07:48;22.10;71.50
81202;DHT22;71068;47.662;-2.750;2023-07-29T09:10:42;22.30;69.50
81202;DHT22;71068;47.662;-2.750;2023-07-29T09:13:33;22.20;68.10
81202;DHT22;71068;47.662;-2.750;2023-07-29T09:16:04;21.90;69.20
81202;DHT22;71068;47.662;-2.750;2023-07-29T09:18:51;22.00;69.40
81202;DHT22;71068;47.662;-2.750;2023-07-29T09:21:23;22.30;69.90
81202;DHT22;71068;47.662;-2.750;2023-07-29T09:23:54;22.50;68.10
81202;DHT22;71068;47.662;-2.750;2023-07-29T09:26:54;22.70;68.70
81202;DHT22;71068;47.662;-2.750;2023-07-29T09:29:50;22.80;66.90
81202;DHT22;71068;47.662;-2.750;2023-07-29T09:32:25;22.80;66.90
81202;DHT22;71068;47.662;-2.750;2023-07-29T09:34:51;22.90;66.10
81202;DHT22;71068;47.662;-2.750;2023-07-29T09:37:21;22.90;65.60
81202;DHT22;71068;47.662;-2.750;2023-07-29T09:39:49;23.00;65.20
81202;DHT22;71068;47.662;-2.750;2023-07-29T09:42:20;23.00;66.30
81202;DHT22;71068;47.662;-2.750;2023-07-29T09:44:49;23.10;65.10
81202;DHT22;71068;47.662;-2.750;2023-07-29T09:47:23;23.20;64.70
81202;DHT22;71068;47.662;-2.750;2023-07-29T09:49:53;23.10;64.50
81202;DHT22;71068;47.662;-2.750;2023-07-29T09:52:24;23.10;65.70
81202;DHT22;71068;47.662;-2.750;2023-07-29T09:54:57;23.30;64.40
81202;DHT22;71068;47.662;-2.750;2023-07-29T09:57:23;23.40;65.10
81202;DHT22;71068;47.662;-2.750;2023-07-29T09:59:58;23.70;63.90
81202;DHT22;71068;47.662;-2.750;2023-07-29T10:02:24;23.90;63.00
81202;DHT22;71068;47.662;-2.750;2023-07-29T10:04:55;23.90;62.10
81202;DHT22;71068;47.662;-2.750;2023-07-29T10:07:22;24.00;62.00
81202;DHT22;71068;47.662;-2.750;2023-07-29T10:09:52;24.30;59.40
81202;DHT22;71068;47.662;-2.750;2023-07-29T10:12:19;24.40;58.90
81202;DHT22;71068;47.662;-2.750;2023-07-29T10:14:59;24.20;60.20
81202;DHT22;71068;47.662;-2.750;2023-07-29T10:17:29;24.30;59.80
81202;DHT22;71068;47.662;-2.750;2023-07-29T10:20:00;24.40;60.50
81202;DHT22;71068;47.662;-2.750;2023-07-29T10:22:42;24.70;59.10
81202;DHT22;71068;47.662;-2.750;2023-07-29T10:25:15;24.90;60.70
81202;DHT22;71068;47.662;-2.750;2023-07-29T10:27:47;24.80;60.70
81202;DHT22;71068;47.662;-2.750;2023-07-29T10:30:14;25.10;58.90
81202;DHT22;71068;47.662;-2.750;2023-07-29T10:32:44;25.00;60.70
81202;DHT22;71068;47.662;-2.750;2023-07-29T10:35:14;25.00;58.80
81202;DHT22;71068;47.662;-2.750;2023-07-29T10:37:41;25.40;58.90
81202;DHT22;71068;47.662;-2.750;2023-07-29T10:40:09;25.40;57.70
81202;DHT22;71068;47.662;-2.750;2023-07-29T10:42:37;25.30;57.50
81202;DHT22;71068;47.662;-2.750;2023-07-29T10:45:20;25.10;59.30
81202;DHT22;71068;47.662;-2.750;2023-07-29T10:47:48;25.00;58.20
81202;DHT22;71068;47.662;-2.750;2023-07-29T10:50:21;24.70;59.70
81202;DHT22;71068;47.662;-2.750;2023-07-29T10:57:42;24.30;63.20
81202;DHT22;71068;47.662;-2.750;2023-07-29T11:00:16;24.30;65.90
81202;DHT22;71068;47.662;-2.750;2023-07-29T11:02:59;23.50;68.30
81202;DHT22;71068;47.662;-2.750;2023-07-29T11:05:27;23.50;68.90
81202;DHT22;71068;47.662;-2.750;2023-07-29T11:08:29;23.10;69.50
81202;DHT22;71068;47.662;-2.750;2023-07-29T11:13:30;23.50;67.80
81202;DHT22;71068;47.662;-2.750;2023-07-29T11:19:22;23.70;67.40
81202;DHT22;71068;47.662;-2.750;2023-07-29T11:21:56;23.40;67.60
81202;DHT22;71068;47.662;-2.750;2023-07-29T11:24:22;22.60;69.70
81202;DHT22;71068;47.662;-2.750;2023-07-29T11:26:48;22.30;70.60
81202;DHT22;71068;47.662;-2.750;2023-07-29T11:29:16;22.20;70.90
81202;DHT22;71068;47.662;-2.750;2023-07-29T11:31:43;22.20;70.00
81202;DHT22;71068;47.662;-2.750;2023-07-29T11:34:09;22.10;70.30
81202;DHT22;71068;47.662;-2.750;2023-07-29T11:36:45;21.90;70.40
81202;DHT22;71068;47.662;-2.750;2023-07-29T11:39:11;21.80;70.60
81202;DHT22;71068;47.662;-2.750;2023-07-29T11:41:37;21.70;71.80
81202;DHT22;71068;47.662;-2.750;2023-07-29T11:44:03;22.00;71.30
81202;DHT22;71068;47.662;-2.750;2023-07-29T11:46:30;22.60;70.10
81202;DHT22;71068;47.662;-2.750;2023-07-29T11:48:56;22.50;69.80
81202;DHT22;71068;47.662;-2.750;2023-07-29T11:51:23;22.30;70.50
81202;DHT22;71068;47.662;-2.750;2023-07-29T11:53:49;22.70;68.80
81202;DHT22;71068;47.662;-2.750;2023-07-29T11:56:17;22.90;68.80
81202;DHT22;71068;47.662;-2.750;2023-07-29T11:58:42;23.10;67.60
81202;DHT22;71068;47.662;-2.750;2023-07-29T12:01:10;23.30;68.00
81202;DHT22;71068;47.662;-2.750;2023-07-29T12:03:36;22.80;68.30
81202;DHT22;71068;47.662;-2.750;2023-07-29T12:06:03;23.20;67.30
81202;DHT22;71068;47.662;-2.750;2023-07-29T12:08:30;23.40;67.30
81202;DHT22;71068;47.662;-2.750;2023-07-29T12:10:56;23.10;68.60
81202;DHT22;71068;47.662;-2.750;2023-07-29T12:13:27;22.90;69.40
81202;DHT22;71068;47.662;-2.750;2023-07-29T12:16:02;23.00;68.30
81202;DHT22;71068;47.662;-2.750;2023-07-29T12:18:35;23.20;67.40
81202;DHT22;71068;47.662;-2.750;2023-07-29T12:21:03;23.10;66.70
81202;DHT22;71068;47.662;-2.750;2023-07-29T12:23:29;23.60;66.20
81202;DHT22;71068;47.662;-2.750;2023-07-29T12:25:59;23.70;64.80
81202;DHT22;71068;47.662;-2.750;2023-07-29T12:28:26;23.60;64.30
81202;DHT22;71068;47.662;-2.750;2023-07-29T12:30:55;23.50;65.40
81202;DHT22;71068;47.662;-2.750;2023-07-29T12:33:33;24.00;65.40
81202;DHT22;71068;47.662;-2.750;2023-07-29T12:36:02;24.70;59.40
81202;DHT22;71068;47.662;-2.750;2023-07-29T12:38:30;24.50;59.50
81202;DHT22;71068;47.662;-2.750;2023-07-29T12:40:57;25.00;57.40
81202;DHT22;71068;47.662;-2.750;2023-07-29T12:43:23;25.10;58.20
81202;DHT22;71068;47.662;-2.750;2023-07-29T12:45:52;23.70;61.80
81202;DHT22;71068;47.662;-2.750;2023-07-29T12:48:23;23.30;63.10
81202;DHT22;71068;47.662;-2.750;2023-07-29T12:50:51;24.00;62.30
81202;DHT22;71068;47.662;-2.750;2023-07-29T12:53:17;24.40;59.70
81202;DHT22;71068;47.662;-2.750;2023-07-29T12:55:43;24.50;61.00
81202;DHT22;71068;47.662;-2.750;2023-07-29T12:58:10;24.90;58.30
81202;DHT22;71068;47.662;-2.750;2023-07-29T13:00:37;24.60;60.00
81202;DHT22;71068;47.662;-2.750;2023-07-29T13:03:04;24.30;60.20
81202;DHT22;71068;47.662;-2.750;2023-07-29T13:05:31;23.50;61.80
81202;DHT22;71068;47.662;-2.750;2023-07-29T13:07:57;23.90;61.20
81202;DHT22;71068;47.662;-2.750;2023-07-29T13:10:23;23.90;61.70
81202;DHT22;71068;47.662;-2.750;2023-07-29T13:12:50;23.80;61.60
81202;DHT22;71068;47.662;-2.750;2023-07-29T13:15:16;24.20;61.10
81202;DHT22;71068;47.662;-2.750;2023-07-29T13:17:42;24.50;58.30
81202;DHT22;71068;47.662;-2.750;2023-07-29T13:20:08;24.90;58.20
81202;DHT22;71068;47.662;-2.750;2023-07-29T13:22:34;24.50;61.00
81202;DHT22;71068;47.662;-2.750;2023-07-29T13:25:02;24.60;59.90
81202;DHT22;71068;47.662;-2.750;2023-07-29T13:27:31;24.70;60.20
81202;DHT22;71068;47.662;-2.750;2023-07-29T13:29:57;25.20;58.90
81202;DHT22;71068;47.662;-2.750;2023-07-29T13:32:23;25.00;57.90
81202;DHT22;71068;47.662;-2.750;2023-07-29T13:34:49;24.40;58.90
81202;DHT22;71068;47.662;-2.750;2023-07-29T13:37:16;24.30;60.50
81202;DHT22;71068;47.662;-2.750;2023-07-29T13:39:42;24.30;60.20
81202;DHT22;71068;47.662;-2.750;2023-07-29T13:42:10;24.10;61.00
81202;DHT22;71068;47.662;-2.750;2023-07-29T13:44:36;24.20;60.70
81202;DHT22;71068;47.662;-2.750;2023-07-29T13:47:07;24.30;60.60
81202;DHT22;71068;47.662;-2.750;2023-07-29T13:49:33;24.60;59.00
81202;DHT22;71068;47.662;-2.750;2023-07-29T13:54:56;23.20;64.00
81202;DHT22;71068;47.662;-2.750;2023-07-29T13:57:32;22.60;65.80
81202;DHT22;71068;47.662;-2.750;2023-07-29T13:59:59;22.70;65.80
81202;DHT22;71068;47.662;-2.750;2023-07-29T14:02:25;23.30;64.70
81202;DHT22;71068;47.662;-2.750;2023-07-29T14:04:53;23.70;64.20
81202;DHT22;71068;47.662;-2.750;2023-07-29T14:07:19;23.70;63.60
81202;DHT22;71068;47.662;-2.750;2023-07-29T14:09:46;23.70;64.10
81202;DHT22;71068;47.662;-2.750;2023-07-29T14:12:13;24.20;62.60
81202;DHT22;71068;47.662;-2.750;2023-07-29T14:14:41;24.50;61.80
81202;DHT22;71068;47.662;-2.750;2023-07-29T14:17:08;24.60;60.40
81202;DHT22;71068;47.662;-2.750;2023-07-29T14:19:35;24.10;61.50
81202;DHT22;71068;47.662;-2.750;2023-07-29T14:22:05;23.90;63.40
81202;DHT22;71068;47.662;-2.750;2023-07-29T14:24:31;24.30;61.90
81202;DHT22;71068;47.662;-2.750;2023-07-29T14:26:57;23.80;63.60
81202;DHT22;71068;47.662;-2.750;2023-07-29T14:29:23;23.40;64.40
81202;DHT22;71068;47.662;-2.750;2023-07-29T14:31:49;24.00;63.60
81202;DHT22;71068;47.662;-2.750;2023-07-29T14:34:17;24.30;62.80
81202;DHT22;71068;47.662;-2.750;2023-07-29T14:36:43;24.00;64.30
81202;DHT22;71068;47.662;-2.750;2023-07-29T14:39:09;24.00;65.00
81202;DHT22;71068;47.662;-2.750;2023-07-29T14:41:35;23.70;66.10
81202;DHT22;71068;47.662;-2.750;2023-07-29T14:44:01;23.70;66.20
81202;DHT22;71068;47.662;-2.750;2023-07-29T14:46:27;23.80;66.70
81202;DHT22;71068;47.662;-2.750;2023-07-29T14:48:52;23.50;67.70
81202;DHT22;71068;47.662;-2.750;2023-07-29T14:51:18;23.30;69.80
81202;DHT22;71068;47.662;-2.750;2023-07-29T14:53:44;23.00;70.30
81202;DHT22;71068;47.662;-2.750;2023-07-29T14:56:10;23.20;70.50
81202;DHT22;71068;47.662;-2.750;2023-07-29T14:58:39;22.50;71.60
81202;DHT22;71068;47.662;-2.750;2023-07-29T15:01:05;22.70;72.60
81202;DHT22;71068;47.662;-2.750;2023-07-29T15:03:31;22.70;73.20
81202;DHT22;71068;47.662;-2.750;2023-07-29T15:05:58;23.00;72.20
81202;DHT22;71068;47.662;-2.750;2023-07-29T15:08:27;23.10;71.20
81202;DHT22;71068;47.662;-2.750;2023-07-29T15:10:53;23.40;70.80
81202;DHT22;71068;47.662;-2.750;2023-07-29T15:13:20;23.70;69.30
81202;DHT22;71068;47.662;-2.750;2023-07-29T15:15:47;23.70;67.50
81202;DHT22;71068;47.662;-2.750;2023-07-29T15:18:16;23.90;67.80
81202;DHT22;71068;47.662;-2.750;2023-07-29T15:20:44;24.20;67.30
81202;DHT22;71068;47.662;-2.750;2023-07-29T15:23:12;24.40;67.70
81202;DHT22;71068;47.662;-2.750;2023-07-29T15:25:38;24.80;64.80
81202;DHT22;71068;47.662;-2.750;2023-07-29T15:28:04;24.90;63.10
81202;DHT22;71068;47.662;-2.750;2023-07-29T15:30:31;25.10;61.70
81202;DHT22;71068;47.662;-2.750;2023-07-29T15:33:02;25.10;61.70
81202;DHT22;71068;47.662;-2.750;2023-07-29T15:35:29;24.90;61.50
81202;DHT22;71068;47.662;-2.750;2023-07-29T15:38:02;24.70;62.70
81202;DHT22;71068;47.662;-2.750;2023-07-29T15:40:28;24.40;64.30
81202;DHT22;71068;47.662;-2.750;2023-07-29T15:42:54;24.10;65.70
81202;DHT22;71068;47.662;-2.750;2023-07-29T15:45:22;23.80;67.50
81202;DHT22;71068;47.662;-2.750;2023-07-29T15:47:48;23.80;68.50
81202;DHT22;71068;47.662;-2.750;2023-07-29T15:50:16;23.90;67.50
81202;DHT22;71068;47.662;-2.750;2023-07-29T15:52:42;24.00;66.30
81202;DHT22;71068;47.662;-2.750;2023-07-29T15:55:09;24.10;66.10
81202;DHT22;71068;47.662;-2.750;2023-07-29T15:57:35;24.20;63.90
81202;DHT22;71068;47.662;-2.750;2023-07-29T16:00:02;24.20;65.50
81202;DHT22;71068;47.662;-2.750;2023-07-29T16:02:33;24.40;65.80
81202;DHT22;71068;47.662;-2.750;2023-07-29T16:05:00;24.50;66.00
81202;DHT22;71068;47.662;-2.750;2023-07-29T16:07:26;24.80;59.80
81202;DHT22;71068;47.662;-2.750;2023-07-29T16:09:52;24.30;62.90
81202;DHT22;71068;47.662;-2.750;2023-07-29T16:12:22;24.40;62.60
81202;DHT22;71068;47.662;-2.750;2023-07-29T16:14:56;24.20;63.90
81202;DHT22;71068;47.662;-2.750;2023-07-29T16:17:24;24.10;65.00
81202;DHT22;71068;47.662;-2.750;2023-07-29T16:19:55;24.10;63.50
81202;DHT22;71068;47.662;-2.750;2023-07-29T16:22:25;23.80;63.70
81202;DHT22;71068;47.662;-2.750;2023-07-29T16:24:51;23.80;64.40
81202;DHT22;71068;47.662;-2.750;2023-07-29T16:27:24;23.30;64.50
81202;DHT22;71068;47.662;-2.750;2023-07-29T16:29:51;23.30;65.10
81202;DHT22;71068;47.662;-2.750;2023-07-29T16:32:17;23.20;64.70
81202;DHT22;71068;47.662;-2.750;2023-07-29T16:34:43;23.20;65.20
81202;DHT22;71068;47.662;-2.750;2023-07-29T16:37:11;23.40;64.60
81202;DHT22;71068;47.662;-2.750;2023-07-29T16:39:38;23.50;64.30
81202;DHT22;71068;47.662;-2.750;2023-07-29T16:42:06;23.40;64.70
81202;DHT22;71068;47.662;-2.750;2023-07-29T16:44:33;23.20;64.70
81202;DHT22;71068;47.662;-2.750;2023-07-29T16:47:02;23.10;66.20
81202;DHT22;71068;47.662;-2.750;2023-07-29T16:49:29;23.00;64.00
81202;DHT22;71068;47.662;-2.750;2023-07-29T16:52:00;22.90;64.60
81202;DHT22;71068;47.662;-2.750;2023-07-29T16:54:26;23.20;64.80
81202;DHT22;71068;47.662;-2.750;2023-07-29T16:56:52;23.10;64.50
81202;DHT22;71068;47.662;-2.750;2023-07-29T16:59:18;23.10;62.30
81202;DHT22;71068;47.662;-2.750;2023-07-29T17:01:48;23.10;63.70
81202;DHT22;71068;47.662;-2.750;2023-07-29T17:04:14;23.00;63.70
81202;DHT22;71068;47.662;-2.750;2023-07-29T17:06:42;23.20;64.20
81202;DHT22;71068;47.662;-2.750;2023-07-29T17:09:08;23.20;64.90
81202;DHT22;71068;47.662;-2.750;2023-07-29T17:11:41;23.60;64.10
81202;DHT22;71068;47.662;-2.750;2023-07-29T17:14:07;23.60;63.80
81202;DHT22;71068;47.662;-2.750;2023-07-29T17:16:33;23.90;61.80
81202;DHT22;71068;47.662;-2.750;2023-07-29T17:18:59;24.00;60.90
81202;DHT22;71068;47.662;-2.750;2023-07-29T17:21:26;24.00;60.50
81202;DHT22;71068;47.662;-2.750;2023-07-29T17:23:53;24.10;60.10
81202;DHT22;71068;47.662;-2.750;2023-07-29T17:26:20;24.20;60.50
81202;DHT22;71068;47.662;-2.750;2023-07-29T17:28:47;24.10;60.10
81202;DHT22;71068;47.662;-2.750;2023-07-29T17:31:13;24.10;59.80
81202;DHT22;71068;47.662;-2.750;2023-07-29T17:33:39;23.90;61.50
81202;DHT22;71068;47.662;-2.750;2023-07-29T17:36:05;24.00;60.80
81202;DHT22;71068;47.662;-2.750;2023-07-29T17:38:31;24.00;60.30
81202;DHT22;71068;47.662;-2.750;2023-07-29T17:40:57;24.10;60.20
81202;DHT22;71068;47.662;-2.750;2023-07-29T17:43:31;23.80;60.20
81202;DHT22;71068;47.662;-2.750;2023-07-29T17:45:59;24.00;58.90
81202;DHT22;71068;47.662;-2.750;2023-07-29T17:48:25;24.10;59.00
81202;DHT22;71068;47.662;-2.750;2023-07-29T17:50:51;23.90;59.30
81202;DHT22;71068;47.662;-2.750;2023-07-29T17:53:18;23.90;58.50
81202;DHT22;71068;47.662;-2.750;2023-07-29T17:55:44;23.80;59.00
81202;DHT22;71068;47.662;-2.750;2023-07-29T17:58:11;23.80;58.90
81202;DHT22;71068;47.662;-2.750;2023-07-29T18:00:47;23.60;59.70
81202;DHT22;71068;47.662;-2.750;2023-07-29T18:03:18;23.40;59.30
81202;DHT22;71068;47.662;-2.750;2023-07-29T18:05:58;23.50;59.50
81202;DHT22;71068;47.662;-2.750;2023-07-29T18:08:27;23.50;60.00
81202;DHT22;71068;47.662;-2.750;2023-07-29T18:11:04;23.60;60.30
81202;DHT22;71068;47.662;-2.750;2023-07-29T18:13:30;23.50;57.90
81202;DHT22;71068;47.662;-2.750;2023-07-29T18:15:58;23.70;57.80
81202;DHT22;71068;47.662;-2.750;2023-07-29T18:18:24;23.50;57.00
81202;DHT22;71068;47.662;-2.750;2023-07-29T18:20:53;23.60;54.40
81202;DHT22;71068;47.662;-2.750;2023-07-29T18:23:18;23.70;54.80
81202;DHT22;71068;47.662;-2.750;2023-07-29T18:25:45;23.60;53.70
81202;DHT22;71068;47.662;-2.750;2023-07-29T18:28:14;23.50;52.30
81202;DHT22;71068;47.662;-2.750;2023-07-29T18:30:42;23.60;52.30
81202;DHT22;71068;47.662;-2.750;2023-07-29T18:33:09;23.60;55.00
81202;DHT22;71068;47.662;-2.750;2023-07-29T18:35:40;23.50;56.30
81202;DHT22;71068;47.662;-2.750;2023-07-29T18:38:07;23.10;56.90
81202;DHT22;71068;47.662;-2.750;2023-07-29T18:40:35;22.90;57.40
81202;DHT22;71068;47.662;-2.750;2023-07-29T18:43:02;22.80;57.90
81202;DHT22;71068;47.662;-2.750;2023-07-29T18:45:32;22.70;58.20
81202;DHT22;71068;47.662;-2.750;2023-07-29T18:48:01;22.60;57.70
81202;DHT22;71068;47.662;-2.750;2023-07-29T18:50:27;22.60;57.50
81202;DHT22;71068;47.662;-2.750;2023-07-29T18:52:53;22.50;57.60
81202;DHT22;71068;47.662;-2.750;2023-07-29T18:55:21;22.40;57.70
81202;DHT22;71068;47.662;-2.750;2023-07-29T18:57:48;22.30;57.50
81202;DHT22;71068;47.662;-2.750;2023-07-29T19:00:14;22.20;57.60
81202;DHT22;71068;47.662;-2.750;2023-07-29T19:02:43;21.90;58.30
81202;DHT22;71068;47.662;-2.750;2023-07-29T19:05:20;21.90;58.90
81202;DHT22;71068;47.662;-2.750;2023-07-29T19:07:48;21.70;59.40
81202;DHT22;71068;47.662;-2.750;2023-07-29T19:10:17;21.70;59.40
81202;DHT22;71068;47.662;-2.750;2023-07-29T19:12:43;21.50;59.90
81202;DHT22;71068;47.662;-2.750;2023-07-29T19:15:12;21.50;60.40
81202;DHT22;71068;47.662;-2.750;2023-07-29T19:17:40;21.40;60.90
81202;DHT22;71068;47.662;-2.750;2023-07-29T19:20:07;21.30;61.70
81202;DHT22;71068;47.662;-2.750;2023-07-29T19:22:40;21.00;63.00
81202;DHT22;71068;47.662;-2.750;2023-07-29T19:25:07;21.00;63.80
81202;DHT22;71068;47.662;-2.750;2023-07-29T19:27:34;20.70;64.50
81202;DHT22;71068;47.662;-2.750;2023-07-29T19:30:00;20.70;65.30
81202;DHT22;71068;47.662;-2.750;2023-07-29T19:32:39;20.70;65.90
81202;DHT22;71068;47.662;-2.750;2023-07-29T19:35:06;20.70;66.00
81202;DHT22;71068;47.662;-2.750;2023-07-29T19:37:33;20.70;67.40
81202;DHT22;71068;47.662;-2.750;2023-07-29T19:40:03;20.50;67.70
81202;DHT22;71068;47.662;-2.750;2023-07-29T19:42:31;20.50;68.00
81202;DHT22;71068;47.662;-2.750;2023-07-29T19:44:59;20.40;68.70
81202;DHT22;71068;47.662;-2.750;2023-07-29T19:47:25;20.20;69.60
81202;DHT22;71068;47.662;-2.750;2023-07-29T19:49:54;20.30;69.60
81202;DHT22;71068;47.662;-2.750;2023-07-29T19:52:21;20.20;70.00
81202;DHT22;71068;47.662;-2.750;2023-07-29T19:54:47;20.30;70.00
81202;DHT22;71068;47.662;-2.750;2023-07-29T19:57:13;20.10;71.10
81202;DHT22;71068;47.662;-2.750;2023-07-29T19:59:39;20.00;71.20
81202;DHT22;71068;47.662;-2.750;2023-07-29T20:02:07;20.00;71.00
81202;DHT22;71068;47.662;-2.750;2023-07-29T20:04:33;20.00;71.50
81202;DHT22;71068;47.662;-2.750;2023-07-29T20:06:59;20.00;71.70
81202;DHT22;71068;47.662;-2.750;2023-07-29T20:09:26;19.90;71.70
81202;DHT22;71068;47.662;-2.750;2023-07-29T20:11:52;19.80;72.20
81202;DHT22;71068;47.662;-2.750;2023-07-29T20:14:18;19.80;71.80
81202;DHT22;71068;47.662;-2.750;2023-07-29T20:16:45;19.90;71.90
81202;DHT22;71068;47.662;-2.750;2023-07-29T20:19:13;19.70;72.50
81202;DHT22;71068;47.662;-2.750;2023-07-29T20:21:40;19.70;72.70
81202;DHT22;71068;47.662;-2.750;2023-07-29T20:24:06;19.80;72.60
81202;DHT22;71068;47.662;-2.750;2023-07-29T20:26:34;19.60;73.10
81202;DHT22;71068;47.662;-2.750;2023-07-29T20:29:02;19.60;73.60
81202;DHT22;71068;47.662;-2.750;2023-07-29T20:31:31;19.50;74.50
81202;DHT22;71068;47.662;-2.750;2023-07-29T20:33:57;19.40;74.20